createdAt,value
2019-03-29T00:01:35.381Z,40.50
2019-03-29T00:04:04.129Z,41.53
2019-03-29T00:06:32.791Z,42.03
2019-03-29T00:09:02.116Z,41.27
2019-03-29T00:11:31.043Z,40.47
2019-03-29T00:13:59.632Z,41.70
2019-03-29T00:16:28.273Z,41.53
2019-03-29T00:18:57.051Z,40.60
2019-03-29T00:21:25.873Z,39.67
2019-03-29T00:24:06.245Z,39.17
2019-03-29T00:26:25.593Z,41.03
2019-03-29T00:28:54.649Z,39.17
2019-03-29T00:31:23.389Z,40.77
2019-03-29T00:33:52.033Z,39.97
2019-03-29T00:36:20.743Z,39.33
2019-03-29T00:38:53.806Z,37.70
2019-03-29T00:41:22.620Z,41.60
2019-03-29T00:43:51.272Z,38.37
2019-03-29T00:46:19.880Z,39.10
2019-03-29T00:48:48.666Z,39.13
2019-03-29T00:51:17.403Z,38.17
2019-03-29T00:53:46.129Z,40.83
2019-03-29T00:56:14.915Z,40.87
2019-03-29T00:58:43.545Z,39.57
2019-03-29T01:01:12.155Z,39.10
2019-03-29T01:03:40.780Z,38.17
2019-03-29T01:06:09.558Z,40.00
2019-03-29T01:08:38.188Z,38.73
2019-03-29T01:11:07.235Z,38.63
2019-03-29T01:13:35.759Z,37.63
2019-03-29T01:16:04.443Z,39.93
2019-03-29T01:18:33.090Z,39.20
2019-03-29T01:21:01.957Z,39.73
2019-03-29T01:23:30.597Z,39.67
2019-03-29T01:26:00.942Z,38.00
2019-03-29T01:28:29.697Z,38.10
2019-03-29T01:30:58.435Z,39.20
2019-03-29T01:33:27.257Z,39.17
2019-03-29T01:35:55.927Z,37.53
2019-03-29T01:38:24.727Z,39.30
2019-03-29T01:40:56.289Z,41.10
2019-03-29T01:43:25.027Z,39.37
2019-03-29T01:45:53.815Z,39.47
2019-03-29T01:48:23.110Z,39.33
2019-03-29T01:50:52.151Z,39.97
2019-03-29T01:53:20.909Z,39.53
2019-03-29T01:55:49.565Z,41.47
2019-03-29T01:58:18.236Z,38.43
2019-03-29T02:00:46.912Z,41.17
2019-03-29T02:03:15.597Z,39.63
2019-03-29T02:05:44.228Z,40.20
2019-03-29T02:08:12.912Z,41.00
2019-03-29T02:10:41.680Z,40.93
2019-03-29T02:13:10.246Z,39.10
2019-03-29T02:15:38.880Z,39.47
2019-03-29T02:18:07.552Z,38.50
2019-03-29T02:20:36.277Z,40.77
2019-03-29T02:23:05.160Z,40.20
2019-03-29T02:25:33.856Z,38.63
2019-03-29T02:28:02.846Z,39.90
2019-03-29T02:30:32.279Z,38.70
2019-03-29T02:33:01.325Z,39.53
2019-03-29T02:35:30.092Z,38.70
2019-03-29T02:37:58.709Z,39.80
2019-03-29T02:40:27.328Z,37.57
2019-03-29T02:42:56.292Z,38.40
2019-03-29T02:45:25.023Z,38.17
2019-03-29T02:47:53.704Z,38.03
2019-03-29T02:50:22.347Z,39.10
2019-03-29T02:52:51.003Z,38.27
2019-03-29T02:55:19.766Z,37.73
2019-03-29T02:57:48.412Z,39.07
2019-03-29T03:00:18.639Z,38.53
2019-03-29T03:02:47.403Z,38.93
2019-03-29T03:05:16.177Z,39.13
2019-03-29T03:07:44.800Z,39.67
2019-03-29T03:10:13.945Z,39.40
2019-03-29T03:12:42.613Z,38.23
2019-03-29T03:15:11.686Z,38.33
2019-03-29T03:17:40.467Z,35.40
2019-03-29T03:20:15.046Z,37.67
2019-03-29T03:22:42.544Z,36.77
2019-03-29T03:25:12.723Z,37.17
2019-03-29T03:27:41.451Z,36.07
2019-03-29T03:30:12.236Z,36.30
2019-03-29T03:32:40.951Z,36.43
2019-03-29T03:35:10.443Z,36.47
2019-03-29T03:37:39.167Z,35.73
2019-03-29T03:40:09.686Z,37.30
2019-03-29T03:42:38.334Z,38.43
2019-03-29T03:45:09.108Z,35.37
2019-03-29T03:47:39.631Z,36.27
2019-03-29T03:50:10.146Z,36.10
2019-03-29T03:52:38.874Z,38.20
2019-03-29T03:55:08.348Z,36.60
2019-03-29T03:57:38.393Z,36.13
2019-03-29T04:00:09.920Z,35.43
2019-03-29T04:02:38.551Z,35.47
2019-03-29T04:05:07.289Z,34.90
2019-03-29T04:07:37.543Z,34.97
2019-03-29T04:10:07.594Z,36.63
2019-03-29T04:12:36.299Z,34.60
2019-03-29T04:15:05.539Z,35.77
2019-03-29T04:17:34.238Z,36.40
2019-03-29T04:20:02.909Z,33.77
2019-03-29T04:22:31.571Z,34.50
2019-03-29T04:25:00.305Z,33.73
2019-03-29T04:27:29.184Z,35.87
2019-03-29T04:29:57.821Z,33.23
2019-03-29T04:32:26.403Z,36.07
2019-03-29T04:34:55.095Z,35.63
2019-03-29T04:37:23.765Z,36.10
2019-03-29T04:40:06.215Z,34.53
2019-03-29T04:42:22.801Z,34.70
2019-03-29T04:44:51.486Z,35.80
2019-03-29T04:47:21.618Z,35.47
2019-03-29T04:49:50.238Z,33.53
2019-03-29T04:52:18.943Z,33.70
2019-03-29T04:54:47.663Z,30.90
2019-03-29T04:57:16.426Z,33.43
2019-03-29T04:59:45.057Z,33.23
2019-03-29T05:02:13.730Z,32.07
2019-03-29T05:04:42.495Z,32.80
2019-03-29T05:07:11.176Z,33.37
2019-03-29T05:09:39.779Z,33.13
2019-03-29T05:12:08.527Z,34.20
2019-03-29T05:14:37.056Z,34.50
2019-03-29T05:17:05.782Z,32.30
2019-03-29T05:19:34.349Z,32.63
2019-03-29T05:22:03.190Z,33.17
2019-03-29T05:24:31.948Z,32.60
2019-03-29T05:27:00.556Z,32.03
2019-03-29T05:29:29.344Z,31.70
2019-03-29T05:31:57.911Z,28.83
2019-03-29T05:34:26.656Z,28.87
2019-03-29T05:36:58.316Z,28.20
2019-03-29T05:39:25.720Z,27.40
2019-03-29T05:41:54.458Z,28.77
2019-03-29T05:44:23.101Z,29.53
2019-03-29T05:46:51.797Z,30.80
2019-03-29T05:49:20.419Z,30.33
2019-03-29T05:51:49.058Z,30.57
2019-03-29T05:54:17.792Z,30.40
2019-03-29T05:57:41.173Z,31.17
2019-03-29T06:00:23.907Z,29.37
2019-03-29T06:03:42.995Z,30.63
2019-03-29T06:25:31.879Z,29.80
2019-03-29T06:34:46.186Z,27.80
2019-03-29T06:37:51.127Z,27.67
2019-03-29T06:40:41.379Z,27.47
2019-03-29T06:46:09.129Z,27.97
2019-03-29T06:49:51.219Z,26.70
2019-03-29T07:17:42.519Z,23.47
2019-03-29T07:23:45.874Z,21.40
2019-03-29T08:01:53.498Z,16.40
2019-03-29T08:04:46.511Z,14.20
2019-03-29T08:19:08.821Z,14.10
2019-03-29T08:24:11.822Z,15.40
2019-03-29T08:33:52.864Z,15.27
2019-03-29T09:01:54.146Z,19.77
2019-03-29T09:17:12.968Z,17.50
2019-03-29T09:26:42.303Z,16.17
2019-03-29T10:01:12.968Z,14.73
2019-03-29T10:36:46.466Z,11.37
2019-03-29T10:42:39.866Z,9.93
2019-03-29T10:45:53.791Z,10.10
2019-03-29T11:12:01.503Z,9.40
2019-03-29T11:23:56.516Z,8.50
2019-03-29T11:26:31.446Z,8.15
2019-03-29T11:29:28.782Z,9.48
2019-03-29T11:31:50.129Z,8.58
2019-03-29T11:34:20.953Z,8.93
2019-03-29T11:36:52.454Z,9.47
2019-03-29T11:39:19.883Z,10.00
2019-03-29T11:41:48.704Z,9.23
2019-03-29T11:44:17.492Z,10.20
2019-03-29T11:46:46.252Z,9.27
2019-03-29T11:49:14.944Z,9.20
2019-03-29T11:51:43.779Z,9.70
2019-03-29T11:54:12.478Z,9.67
2019-03-29T11:56:42.723Z,9.47
2019-03-29T11:59:11.505Z,10.07
2019-03-29T12:01:40.209Z,9.17
2019-03-29T12:04:19.744Z,10.00
2019-03-29T12:06:48.562Z,9.83
2019-03-29T12:09:17.418Z,9.47
2019-03-29T12:11:46.030Z,9.37
2019-03-29T12:14:14.800Z,10.00
2019-03-29T12:16:43.509Z,9.70
2019-03-29T12:19:12.166Z,9.67
2019-03-29T12:21:40.841Z,9.87
2019-03-29T12:24:09.487Z,9.20
2019-03-29T12:26:38.081Z,10.03
2019-03-29T12:29:06.818Z,10.50
2019-03-29T12:31:35.549Z,11.07
2019-03-29T12:34:04.230Z,11.03
2019-03-29T12:36:35.621Z,9.73
2019-03-29T12:39:06.796Z,10.17
2019-03-29T12:41:35.510Z,10.43
2019-03-29T12:44:04.274Z,10.40
2019-03-29T12:46:33.004Z,10.20
2019-03-29T12:49:01.752Z,10.37
2019-03-29T12:51:30.397Z,9.13
2019-03-29T12:53:59.440Z,9.30
2019-03-29T12:56:28.035Z,10.00
2019-03-29T12:58:56.639Z,9.27
2019-03-29T13:01:38.334Z,10.27
2019-03-29T13:03:55.787Z,10.47
2019-03-29T13:06:24.565Z,9.87
2019-03-29T13:08:53.185Z,10.20
2019-03-29T13:11:22.018Z,9.50
2019-03-29T13:13:50.707Z,10.03
2019-03-29T13:16:19.540Z,9.30
2019-03-29T13:18:48.176Z,10.27
2019-03-29T13:21:16.877Z,9.17
2019-03-29T13:23:45.678Z,8.97
2019-03-29T13:26:14.252Z,9.23
2019-03-29T13:28:42.894Z,8.57
2019-03-29T13:31:11.757Z,8.40
2019-03-29T13:33:42.014Z,8.60
2019-03-29T13:36:10.794Z,9.07
2019-03-29T13:38:39.483Z,8.77
2019-03-29T13:41:08.120Z,8.90
2019-03-29T13:43:36.696Z,9.10
2019-03-29T13:46:05.578Z,9.57
2019-03-29T13:48:34.242Z,10.40
2019-03-29T13:51:02.866Z,8.37
2019-03-29T13:53:31.576Z,9.03
2019-03-29T13:56:00.175Z,9.40
2019-03-29T13:58:28.798Z,10.27
2019-03-29T14:00:57.401Z,9.80
2019-03-29T14:03:26.103Z,8.83
2019-03-29T14:05:54.710Z,8.57
2019-03-29T14:08:23.354Z,10.07
2019-03-29T14:10:52.127Z,9.30
2019-03-29T14:13:20.665Z,9.60
2019-03-29T14:15:49.291Z,9.50
2019-03-29T14:18:17.910Z,9.60
2019-03-29T14:20:46.568Z,8.97
2019-03-29T14:23:15.196Z,9.87
2019-03-29T14:25:43.796Z,9.80
2019-03-29T14:28:12.499Z,9.73
2019-03-29T14:30:41.128Z,8.93
2019-03-29T14:33:09.736Z,9.83
2019-03-29T14:35:38.444Z,9.00
2019-03-29T14:38:07.162Z,9.47
2019-03-29T14:40:40.355Z,10.37
2019-03-29T14:43:09.182Z,8.63
2019-03-29T14:45:37.795Z,9.57
2019-03-29T14:48:06.447Z,9.07
2019-03-29T14:50:35.016Z,9.10
2019-03-29T14:53:04.323Z,10.47
2019-03-29T14:55:33.101Z,8.60
2019-03-29T14:58:01.687Z,9.17
2019-03-29T15:00:41.983Z,9.80
2019-03-29T15:03:11.453Z,10.23
2019-03-29T15:05:40.720Z,10.07
2019-03-29T15:08:09.477Z,9.57
2019-03-29T15:10:38.134Z,9.67
2019-03-29T15:13:07.048Z,9.63
2019-03-29T15:15:35.863Z,9.90
2019-03-29T15:18:04.576Z,10.73
2019-03-29T15:20:33.381Z,11.17
2019-03-29T15:23:02.120Z,11.37
2019-03-29T15:25:30.839Z,11.07
2019-03-29T15:27:59.568Z,11.10
2019-03-29T15:30:56.005Z,11.03
2019-03-29T15:33:24.741Z,12.23
2019-03-29T15:35:53.382Z,11.23
2019-03-29T15:38:22.109Z,12.30
2019-03-29T15:40:52.475Z,12.40
2019-03-29T15:43:21.056Z,11.97
2019-03-29T15:45:49.746Z,12.80
2019-03-29T15:48:18.565Z,12.87
2019-03-29T15:50:47.209Z,12.37
2019-03-29T15:53:17.607Z,13.13
2019-03-29T15:55:46.159Z,12.83
2019-03-29T15:58:15.013Z,12.97
2019-03-29T16:00:43.811Z,12.80
2019-03-29T16:03:12.559Z,13.37
2019-03-29T16:05:41.604Z,12.57
2019-03-29T16:08:13.307Z,12.00
2019-03-29T16:10:41.865Z,11.40
2019-03-29T16:13:10.526Z,9.37
2019-03-29T16:15:39.240Z,10.57
2019-03-29T16:18:07.861Z,9.40
2019-03-29T16:20:36.512Z,10.40
2019-03-29T16:23:05.165Z,10.07
2019-03-29T16:25:36.292Z,10.03
2019-03-29T16:28:05.014Z,9.30
2019-03-29T16:30:33.855Z,8.80
2019-03-29T16:33:02.481Z,9.40
2019-03-29T16:35:31.340Z,9.00
2019-03-29T16:37:59.914Z,9.70
2019-03-29T16:40:30.979Z,10.30
2019-03-29T16:42:59.925Z,10.10
2019-03-29T16:45:28.466Z,10.47
2019-03-29T16:47:57.222Z,10.27
2019-03-29T16:50:25.891Z,10.10
2019-03-29T16:52:54.806Z,11.27
2019-03-29T16:55:23.623Z,11.57
2019-03-29T16:57:52.401Z,10.90
2019-03-29T17:00:21.119Z,12.03
2019-03-29T17:02:49.782Z,10.80
2019-03-29T17:05:18.384Z,11.83
2019-03-29T17:07:47.238Z,11.77
2019-03-29T17:10:19.080Z,10.57
2019-03-29T17:12:47.859Z,11.37
2019-03-29T17:15:16.755Z,12.57
2019-03-29T17:17:45.411Z,12.00
2019-03-29T17:20:14.189Z,12.23
2019-03-29T17:22:43.389Z,12.17
2019-03-29T17:25:12.581Z,12.40
2019-03-29T17:27:41.277Z,12.83
2019-03-29T17:30:12.399Z,13.80
2019-03-29T17:32:41.003Z,13.10
2019-03-29T17:35:09.876Z,12.67
2019-03-29T17:37:38.477Z,13.13
2019-03-29T17:40:13.613Z,12.53
2019-03-29T17:42:42.216Z,12.03
2019-03-29T17:45:11.182Z,13.47
2019-03-29T17:47:39.954Z,12.77
2019-03-29T17:50:08.688Z,14.97
2019-03-29T17:52:37.319Z,13.40
2019-03-29T17:55:07.438Z,12.73
2019-03-29T17:57:36.206Z,12.83
2019-03-29T18:00:07.470Z,12.87
2019-03-29T18:02:36.226Z,12.33
2019-03-29T18:05:07.257Z,13.47
2019-03-29T18:07:36.112Z,12.20
2019-03-29T18:10:06.581Z,11.77
2019-03-29T18:12:35.210Z,11.63
2019-03-29T18:15:06.399Z,12.63
2019-03-29T18:17:34.972Z,12.33
2019-03-29T18:20:05.582Z,12.97
2019-03-29T18:22:34.309Z,12.93
2019-03-29T18:25:02.945Z,11.53
2019-03-29T18:27:31.714Z,12.57
2019-03-29T18:30:00.375Z,12.73
2019-03-29T18:32:32.863Z,12.07
2019-03-29T18:35:01.518Z,12.63
2019-03-29T18:37:30.398Z,12.70
2019-03-29T18:39:59.069Z,11.63
2019-03-29T18:42:29.670Z,12.60
2019-03-29T18:44:58.293Z,12.87
2019-03-29T18:47:27.030Z,12.30
2019-03-29T18:49:55.630Z,11.77
2019-03-29T18:52:24.648Z,12.10
2019-03-29T18:54:53.683Z,12.10
2019-03-29T18:57:22.371Z,12.90
2019-03-29T18:59:54.615Z,12.60
2019-03-29T19:02:23.200Z,12.17
2019-03-29T19:04:51.830Z,12.60
2019-03-29T19:07:23.639Z,13.73
2019-03-29T19:09:52.308Z,13.50
2019-03-29T19:12:21.126Z,14.70
2019-03-29T19:14:49.871Z,15.00
2019-03-29T19:17:18.726Z,14.40
2019-03-29T19:19:48.869Z,13.77
2019-03-29T19:22:25.257Z,13.87
2019-03-29T19:24:56.896Z,14.80
2019-03-29T19:27:27.060Z,13.43
2019-03-29T19:30:03.421Z,14.40
2019-03-29T19:35:37.707Z,14.03
2019-03-29T19:38:34.111Z,12.47
2019-03-29T19:41:07.275Z,14.33
2019-03-29T19:43:42.206Z,13.87
2019-03-29T19:46:15.012Z,13.03
2019-03-29T19:51:52.360Z,12.90
2019-03-29T19:54:23.857Z,13.73
2019-03-29T19:56:55.734Z,13.90
2019-03-29T19:59:24.415Z,14.73
2019-03-29T20:01:53.259Z,14.43
2019-03-29T20:04:22.098Z,13.63
2019-03-29T20:06:50.853Z,14.17
2019-03-29T20:09:19.801Z,13.70
2019-03-29T20:11:48.560Z,13.80
2019-03-29T20:14:17.293Z,13.53
2019-03-29T20:16:46.014Z,14.67
2019-03-29T20:19:14.815Z,14.77
2019-03-29T20:21:43.431Z,13.60
2019-03-29T20:24:12.305Z,14.33
2019-03-29T20:26:41.033Z,15.27
2019-03-29T20:29:09.958Z,15.17
2019-03-29T20:31:38.751Z,13.00
2019-03-29T20:34:10.792Z,13.93
2019-03-29T20:36:39.463Z,14.93
2019-03-29T20:39:08.373Z,13.87
2019-03-29T20:41:41.100Z,14.07
2019-03-29T20:44:09.761Z,14.67
2019-03-29T20:46:38.534Z,15.03
2019-03-29T20:49:12.831Z,16.10
2019-03-29T20:51:43.191Z,15.07
2019-03-29T20:54:14.590Z,15.53
2019-03-29T20:56:43.340Z,16.03
2019-03-29T20:59:13.032Z,15.20
2019-03-29T21:01:41.893Z,15.13
2019-03-29T21:04:10.519Z,15.97
2019-03-29T21:06:39.267Z,14.73
2019-03-29T21:09:08.681Z,15.17
2019-03-29T21:11:37.488Z,14.27
2019-03-29T21:14:06.249Z,15.43
2019-03-29T21:16:35.041Z,15.30
2019-03-29T21:19:06.346Z,15.33
2019-03-29T21:21:35.014Z,15.00
2019-03-29T21:24:03.710Z,14.80
2019-03-29T21:26:32.376Z,15.67
2019-03-29T21:29:02.457Z,15.67
2019-03-29T21:31:42.631Z,15.83
2019-03-29T21:34:11.376Z,14.47
2019-03-29T21:36:40.155Z,15.77
2019-03-29T21:39:10.947Z,15.50
2019-03-29T21:41:41.637Z,16.30
2019-03-29T21:44:10.356Z,17.20
2019-03-29T21:46:42.216Z,16.83
2019-03-29T21:49:10.958Z,16.17
2019-03-29T21:51:39.675Z,15.10
2019-03-29T21:54:08.292Z,16.63
2019-03-29T21:56:36.975Z,17.33
2019-03-29T21:59:08.370Z,17.50
2019-03-29T22:01:37.174Z,16.73
2019-03-29T22:04:07.353Z,17.97
2019-03-29T22:06:35.975Z,17.20
2019-03-29T22:09:07.014Z,18.17
2019-03-29T22:11:36.789Z,17.83
2019-03-29T22:14:08.942Z,19.63
2019-03-29T22:16:42.036Z,19.13
2019-03-29T22:19:16.011Z,18.23
2019-03-29T22:21:50.536Z,18.87
2019-03-29T22:24:19.600Z,19.17
2019-03-29T22:26:48.466Z,18.17
2019-03-29T22:29:18.564Z,17.80
2019-03-29T22:31:47.172Z,17.37
2019-03-29T22:34:15.839Z,18.47
2019-03-29T22:36:44.678Z,17.83
2019-03-29T22:39:13.468Z,18.53
2019-03-29T22:41:42.227Z,18.13
2019-03-29T22:44:10.952Z,18.37
2019-03-29T22:46:39.703Z,16.60
2019-03-29T22:49:08.354Z,18.17
2019-03-29T22:51:37.102Z,18.07
2019-03-29T22:54:08.087Z,18.33
2019-03-29T22:56:40.631Z,18.07
2019-03-29T22:59:09.773Z,17.73
2019-03-29T23:01:41.655Z,18.90
2019-03-29T23:04:10.525Z,18.97
2019-03-29T23:06:39.264Z,19.37
2019-03-29T23:09:11.618Z,18.07
2019-03-29T23:11:38.870Z,18.20
2019-03-29T23:14:07.507Z,17.27
2019-03-29T23:16:36.215Z,17.37
2019-03-29T23:19:06.774Z,18.30
2019-03-29T23:21:35.423Z,18.13
2019-03-29T23:24:04.285Z,18.50
2019-03-29T23:26:33.003Z,18.37
2019-03-29T23:29:01.759Z,18.87
2019-03-29T23:31:30.411Z,19.40
2019-03-29T23:33:59.151Z,19.50
2019-03-29T23:36:28.119Z,19.07
2019-03-29T23:38:56.813Z,20.33
2019-03-29T23:41:25.542Z,20.37
2019-03-29T23:43:54.216Z,19.23
2019-03-29T23:46:22.910Z,20.60
2019-03-29T23:48:51.725Z,20.03
2019-03-29T23:51:20.404Z,19.80
2019-03-29T23:53:49.128Z,20.57
2019-03-29T23:56:17.992Z,19.83
2019-03-29T23:58:46.684Z,21.17
